sensor_id;sensor_type;location;lat;lon;timestamp;P1;durP1;ratioP1;P2;durP2;ratioP2
63005;SDS011;53704;52.532;6.426;2023-02-15T00:01:47;53.85;;;28.23;;
63005;SDS011;53704;52.532;6.426;2023-02-15T00:04:14;48.03;;;27.30;;
63005;SDS011;53704;52.532;6.426;2023-02-15T00:06:41;47.55;;;27.52;;
63005;SDS011;53704;52.532;6.426;2023-02-15T00:09:06;56.03;;;31.05;;
63005;SDS011;53704;52.532;6.426;2023-02-15T00:11:33;47.45;;;27.98;;
63005;SDS011;53704;52.532;6.426;2023-02-15T00:16:42;50.58;;;28.65;;
63005;SDS011;53704;52.532;6.426;2023-02-15T00:19:09;49.25;;;28.88;;
63005;SDS011;53704;52.532;6.426;2023-02-15T00:21:36;46.63;;;28.67;;
63005;SDS011;53704;52.532;6.426;2023-02-15T00:24:03;47.88;;;28.05;;
63005;SDS011;53704;52.532;6.426;2023-02-15T00:26:30;55.47;;;30.83;;
63005;SDS011;53704;52.532;6.426;2023-02-15T00:28:57;54.00;;;30.20;;
63005;SDS011;53704;52.532;6.426;2023-02-15T00:31:24;57.83;;;30.98;;
63005;SDS011;53704;52.532;6.426;2023-02-15T00:33:50;50.95;;;28.63;;
63005;SDS011;53704;52.532;6.426;2023-02-15T00:36:15;53.40;;;31.30;;
63005;SDS011;53704;52.532;6.426;2023-02-15T00:38:40;50.15;;;28.88;;
63005;SDS011;53704;52.532;6.426;2023-02-15T00:41:06;59.50;;;29.98;;
63005;SDS011;53704;52.532;6.426;2023-02-15T00:43:33;47.88;;;28.67;;
63005;SDS011;53704;52.532;6.426;2023-02-15T00:45:59;52.83;;;28.80;;
63005;SDS011;53704;52.532;6.426;2023-02-15T00:48:25;47.58;;;29.05;;
63005;SDS011;53704;52.532;6.426;2023-02-15T00:50:55;51.97;;;28.88;;
63005;SDS011;53704;52.532;6.426;2023-02-15T00:53:23;55.83;;;29.10;;
63005;SDS011;53704;52.532;6.426;2023-02-15T00:55:49;56.15;;;31.95;;
63005;SDS011;53704;52.532;6.426;2023-02-15T00:58:14;48.33;;;28.05;;
63005;SDS011;53704;52.532;6.426;2023-02-15T01:00:41;49.60;;;28.53;;
63005;SDS011;53704;52.532;6.426;2023-02-15T01:03:08;52.13;;;29.03;;
63005;SDS011;53704;52.532;6.426;2023-02-15T01:05:34;57.43;;;28.73;;
63005;SDS011;53704;52.532;6.426;2023-02-15T01:08:00;54.57;;;30.30;;
63005;SDS011;53704;52.532;6.426;2023-02-15T01:10:26;50.33;;;28.55;;
63005;SDS011;53704;52.532;6.426;2023-02-15T01:12:52;48.15;;;28.67;;
63005;SDS011;53704;52.532;6.426;2023-02-15T01:15:18;52.63;;;29.75;;
63005;SDS011;53704;52.532;6.426;2023-02-15T01:17:44;53.07;;;30.50;;
63005;SDS011;53704;52.532;6.426;2023-02-15T01:20:14;58.72;;;30.25;;
63005;SDS011;53704;52.532;6.426;2023-02-15T01:22:40;55.17;;;29.00;;
63005;SDS011;53704;52.532;6.426;2023-02-15T01:25:05;52.00;;;29.23;;
63005;SDS011;53704;52.532;6.426;2023-02-15T01:27:31;51.93;;;30.53;;
63005;SDS011;53704;52.532;6.426;2023-02-15T01:29:56;53.83;;;28.30;;
63005;SDS011;53704;52.532;6.426;2023-02-15T01:32:22;53.77;;;30.73;;
63005;SDS011;53704;52.532;6.426;2023-02-15T01:34:48;58.97;;;29.40;;
63005;SDS011;53704;52.532;6.426;2023-02-15T01:37:13;54.50;;;30.00;;
63005;SDS011;53704;52.532;6.426;2023-02-15T01:39:40;54.67;;;29.55;;
63005;SDS011;53704;52.532;6.426;2023-02-15T01:42:07;50.90;;;30.08;;
63005;SDS011;53704;52.532;6.426;2023-02-15T01:44:54;45.85;;;27.77;;
63005;SDS011;53704;52.532;6.426;2023-02-15T01:49:50;49.40;;;29.80;;
63005;SDS011;53704;52.532;6.426;2023-02-15T01:52:25;52.83;;;29.33;;
63005;SDS011;53704;52.532;6.426;2023-02-15T01:54:50;56.13;;;30.73;;
63005;SDS011;53704;52.532;6.426;2023-02-15T01:57:17;53.90;;;29.67;;
63005;SDS011;53704;52.532;6.426;2023-02-15T01:59:48;63.97;;;30.98;;
63005;SDS011;53704;52.532;6.426;2023-02-15T02:02:18;55.45;;;27.98;;
63005;SDS011;53704;52.532;6.426;2023-02-15T02:04:52;49.67;;;28.50;;
63005;SDS011;53704;52.532;6.426;2023-02-15T02:07:22;51.43;;;30.00;;
63005;SDS011;53704;52.532;6.426;2023-02-15T02:09:51;52.17;;;29.53;;
63005;SDS011;53704;52.532;6.426;2023-02-15T02:12:17;51.77;;;30.03;;
63005;SDS011;53704;52.532;6.426;2023-02-15T02:14:44;55.80;;;29.07;;
63005;SDS011;53704;52.532;6.426;2023-02-15T02:22:39;60.53;;;33.63;;
63005;SDS011;53704;52.532;6.426;2023-02-15T02:36:08;54.67;;;31.97;;
63005;SDS011;53704;52.532;6.426;2023-02-15T02:38:48;51.67;;;30.37;;
63005;SDS011;53704;52.532;6.426;2023-02-15T02:50:01;60.07;;;31.93;;
63005;SDS011;53704;52.532;6.426;2023-02-15T02:55:01;57.90;;;31.20;;
63005;SDS011;53704;52.532;6.426;2023-02-15T02:57:30;55.43;;;32.17;;
63005;SDS011;53704;52.532;6.426;2023-02-15T02:59:57;67.93;;;33.63;;
63005;SDS011;53704;52.532;6.426;2023-02-15T03:02:26;58.70;;;34.95;;
63005;SDS011;53704;52.532;6.426;2023-02-15T03:04:57;69.15;;;34.72;;
63005;SDS011;53704;52.532;6.426;2023-02-15T03:07:28;62.72;;;33.75;;
63005;SDS011;53704;52.532;6.426;2023-02-15T03:09:57;65.63;;;35.15;;
63005;SDS011;53704;52.532;6.426;2023-02-15T03:14:58;64.50;;;32.07;;
63005;SDS011;53704;52.532;6.426;2023-02-15T03:17:31;67.47;;;34.50;;
63005;SDS011;53704;52.532;6.426;2023-02-15T03:19:58;59.85;;;32.95;;
63005;SDS011;53704;52.532;6.426;2023-02-15T03:22:38;62.03;;;33.30;;
63005;SDS011;53704;52.532;6.426;2023-02-15T03:25:09;55.63;;;32.87;;
63005;SDS011;53704;52.532;6.426;2023-02-15T03:27:40;53.17;;;31.17;;
63005;SDS011;53704;52.532;6.426;2023-02-15T03:30:10;56.27;;;33.20;;
63005;SDS011;53704;52.532;6.426;2023-02-15T03:32:38;61.00;;;31.80;;
63005;SDS011;53704;52.532;6.426;2023-02-15T03:35:06;53.42;;;32.92;;
63005;SDS011;53704;52.532;6.426;2023-02-15T03:40:07;60.25;;;32.70;;
63005;SDS011;53704;52.532;6.426;2023-02-15T03:43:00;58.70;;;32.20;;
63005;SDS011;53704;52.532;6.426;2023-02-15T03:45:49;65.87;;;32.93;;
63005;SDS011;53704;52.532;6.426;2023-02-15T03:49:03;58.55;;;31.25;;
63005;SDS011;53704;52.532;6.426;2023-02-15T03:51:20;60.42;;;31.63;;
63005;SDS011;53704;52.532;6.426;2023-02-15T03:57:06;55.97;;;31.45;;
63005;SDS011;53704;52.532;6.426;2023-02-15T03:59:52;62.13;;;31.87;;
63005;SDS011;53704;52.532;6.426;2023-02-15T04:05:43;71.50;;;36.30;;
63005;SDS011;53704;52.532;6.426;2023-02-15T04:08:09;73.40;;;35.27;;
63005;SDS011;53704;52.532;6.426;2023-02-15T04:10:36;236.23;;;45.80;;
63005;SDS011;53704;52.532;6.426;2023-02-15T04:13:23;84.43;;;38.47;;
63005;SDS011;53704;52.532;6.426;2023-02-15T04:15:58;64.83;;;35.37;;
63005;SDS011;53704;52.532;6.426;2023-02-15T04:18:30;79.20;;;39.57;;
63005;SDS011;53704;52.532;6.426;2023-02-15T04:21:19;80.30;;;39.33;;
63005;SDS011;53704;52.532;6.426;2023-02-15T04:24:04;76.82;;;37.35;;
63005;SDS011;53704;52.532;6.426;2023-02-15T04:26:48;70.03;;;38.97;;
63005;SDS011;53704;52.532;6.426;2023-02-15T04:29:17;81.17;;;37.67;;
63005;SDS011;53704;52.532;6.426;2023-02-15T04:31:43;67.60;;;35.37;;
63005;SDS011;53704;52.532;6.426;2023-02-15T04:34:09;73.33;;;36.97;;
63005;SDS011;53704;52.532;6.426;2023-02-15T04:36:35;66.30;;;36.10;;
63005;SDS011;53704;52.532;6.426;2023-02-15T04:39:01;72.63;;;35.63;;
63005;SDS011;53704;52.532;6.426;2023-02-15T04:41:30;61.80;;;34.67;;
63005;SDS011;53704;52.532;6.426;2023-02-15T04:43:56;67.80;;;35.20;;
63005;SDS011;53704;52.532;6.426;2023-02-15T04:46:22;67.57;;;33.20;;
63005;SDS011;53704;52.532;6.426;2023-02-15T04:48:48;67.93;;;35.27;;
63005;SDS011;53704;52.532;6.426;2023-02-15T04:51:13;58.60;;;32.50;;
63005;SDS011;53704;52.532;6.426;2023-02-15T04:53:39;68.50;;;35.00;;
63005;SDS011;53704;52.532;6.426;2023-02-15T04:56:04;73.20;;;35.57;;
63005;SDS011;53704;52.532;6.426;2023-02-15T04:58:30;70.17;;;34.40;;
63005;SDS011;53704;52.532;6.426;2023-02-15T05:00:55;66.13;;;33.50;;
63005;SDS011;53704;52.532;6.426;2023-02-15T05:03:22;64.77;;;34.50;;
63005;SDS011;53704;52.532;6.426;2023-02-15T05:05:47;58.33;;;33.50;;
63005;SDS011;53704;52.532;6.426;2023-02-15T05:08:13;66.03;;;33.73;;
63005;SDS011;53704;52.532;6.426;2023-02-15T05:10:39;57.13;;;33.33;;
63005;SDS011;53704;52.532;6.426;2023-02-15T05:13:04;56.97;;;33.10;;
63005;SDS011;53704;52.532;6.426;2023-02-15T05:15:30;59.33;;;33.23;;
63005;SDS011;53704;52.532;6.426;2023-02-15T05:17:55;63.77;;;33.60;;
63005;SDS011;53704;52.532;6.426;2023-02-15T05:20:20;61.50;;;34.50;;
63005;SDS011;53704;52.532;6.426;2023-02-15T05:22:46;62.60;;;33.70;;
63005;SDS011;53704;52.532;6.426;2023-02-15T05:25:11;60.67;;;33.97;;
63005;SDS011;53704;52.532;6.426;2023-02-15T05:27:55;58.67;;;32.40;;
63005;SDS011;53704;52.532;6.426;2023-02-15T05:30:39;56.87;;;33.77;;
63005;SDS011;53704;52.532;6.426;2023-02-15T05:33:05;62.70;;;33.23;;
63005;SDS011;53704;52.532;6.426;2023-02-15T05:35:31;57.27;;;33.23;;
63005;SDS011;53704;52.532;6.426;2023-02-15T05:37:58;62.73;;;32.80;;
63005;SDS011;53704;52.532;6.426;2023-02-15T05:40:23;57.43;;;31.43;;
63005;SDS011;53704;52.532;6.426;2023-02-15T05:42:49;59.40;;;31.93;;
63005;SDS011;53704;52.532;6.426;2023-02-15T05:45:14;58.00;;;32.00;;
63005;SDS011;53704;52.532;6.426;2023-02-15T05:47:40;58.13;;;31.50;;
63005;SDS011;53704;52.532;6.426;2023-02-15T05:50:06;57.43;;;32.17;;
63005;SDS011;53704;52.532;6.426;2023-02-15T05:52:32;59.87;;;32.40;;
63005;SDS011;53704;52.532;6.426;2023-02-15T05:54:58;50.73;;;29.30;;
63005;SDS011;53704;52.532;6.426;2023-02-15T05:57:25;60.63;;;32.37;;
63005;SDS011;53704;52.532;6.426;2023-02-15T05:59:50;57.70;;;31.45;;
63005;SDS011;53704;52.532;6.426;2023-02-15T06:02:16;54.03;;;30.10;;
63005;SDS011;53704;52.532;6.426;2023-02-15T06:04:41;56.07;;;29.20;;
63005;SDS011;53704;52.532;6.426;2023-02-15T06:07:07;56.50;;;31.43;;
63005;SDS011;53704;52.532;6.426;2023-02-15T06:09:32;48.77;;;30.37;;
63005;SDS011;53704;52.532;6.426;2023-02-15T06:11:58;51.43;;;29.80;;
63005;SDS011;53704;52.532;6.426;2023-02-15T06:14:24;54.73;;;30.13;;
63005;SDS011;53704;52.532;6.426;2023-02-15T06:16:49;58.37;;;30.37;;
63005;SDS011;53704;52.532;6.426;2023-02-15T06:19:14;51.47;;;30.20;;
63005;SDS011;53704;52.532;6.426;2023-02-15T06:21:40;49.50;;;29.07;;
63005;SDS011;53704;52.532;6.426;2023-02-15T06:24:05;50.67;;;29.10;;
63005;SDS011;53704;52.532;6.426;2023-02-15T06:26:33;50.13;;;29.03;;
63005;SDS011;53704;52.532;6.426;2023-02-15T06:28:59;58.97;;;30.43;;
63005;SDS011;53704;52.532;6.426;2023-02-15T06:31:24;53.80;;;30.00;;
63005;SDS011;53704;52.532;6.426;2023-02-15T06:33:50;55.40;;;29.03;;
63005;SDS011;53704;52.532;6.426;2023-02-15T06:36:15;52.97;;;28.73;;
63005;SDS011;53704;52.532;6.426;2023-02-15T06:38:41;47.83;;;27.93;;
63005;SDS011;53704;52.532;6.426;2023-02-15T06:41:06;51.10;;;27.87;;
63005;SDS011;53704;52.532;6.426;2023-02-15T06:43:32;50.07;;;29.27;;
63005;SDS011;53704;52.532;6.426;2023-02-15T06:45:59;52.17;;;28.70;;
63005;SDS011;53704;52.532;6.426;2023-02-15T06:48:25;62.17;;;31.47;;
63005;SDS011;53704;52.532;6.426;2023-02-15T06:50:50;56.70;;;30.60;;
63005;SDS011;53704;52.532;6.426;2023-02-15T06:53:16;55.27;;;30.47;;
63005;SDS011;53704;52.532;6.426;2023-02-15T06:55:41;52.00;;;28.60;;
63005;SDS011;53704;52.532;6.426;2023-02-15T06:58:06;64.70;;;29.90;;
63005;SDS011;53704;52.532;6.426;2023-02-15T07:00:32;54.53;;;28.77;;
63005;SDS011;53704;52.532;6.426;2023-02-15T07:02:58;55.87;;;30.67;;
63005;SDS011;53704;52.532;6.426;2023-02-15T07:05:25;52.80;;;28.93;;
63005;SDS011;53704;52.532;6.426;2023-02-15T07:07:55;53.80;;;28.83;;
63005;SDS011;53704;52.532;6.426;2023-02-15T07:10:21;50.47;;;27.93;;
63005;SDS011;53704;52.532;6.426;2023-02-15T07:12:46;56.03;;;29.47;;
63005;SDS011;53704;52.532;6.426;2023-02-15T07:15:16;50.47;;;28.87;;
63005;SDS011;53704;52.532;6.426;2023-02-15T07:17:42;63.93;;;30.43;;
63005;SDS011;53704;52.532;6.426;2023-02-15T07:22:36;63.10;;;32.00;;
63005;SDS011;53704;52.532;6.426;2023-02-15T07:25:06;53.43;;;29.73;;
63005;SDS011;53704;52.532;6.426;2023-02-15T07:27:33;67.43;;;33.30;;
63005;SDS011;53704;52.532;6.426;2023-02-15T07:29:59;59.03;;;32.57;;
63005;SDS011;53704;52.532;6.426;2023-02-15T07:32:27;50.58;;;29.20;;
63005;SDS011;53704;52.532;6.426;2023-02-15T07:34:54;57.53;;;31.50;;
63005;SDS011;53704;52.532;6.426;2023-02-15T07:37:19;56.77;;;30.60;;
63005;SDS011;53704;52.532;6.426;2023-02-15T07:39:44;59.67;;;31.20;;
63005;SDS011;53704;52.532;6.426;2023-02-15T07:42:10;59.72;;;32.95;;
63005;SDS011;53704;52.532;6.426;2023-02-15T07:44:35;59.80;;;32.57;;
63005;SDS011;53704;52.532;6.426;2023-02-15T07:47:01;68.73;;;34.67;;
63005;SDS011;53704;52.532;6.426;2023-02-15T07:49:26;64.47;;;34.83;;
63005;SDS011;53704;52.532;6.426;2023-02-15T07:51:51;72.90;;;34.30;;
63005;SDS011;53704;52.532;6.426;2023-02-15T07:54:17;67.90;;;34.63;;
63005;SDS011;53704;52.532;6.426;2023-02-15T07:56:42;73.67;;;35.03;;
63005;SDS011;53704;52.532;6.426;2023-02-15T07:59:08;77.25;;;38.15;;
63005;SDS011;53704;52.532;6.426;2023-02-15T08:01:35;69.85;;;36.05;;
63005;SDS011;53704;52.532;6.426;2023-02-15T08:04:02;70.57;;;34.60;;
63005;SDS011;53704;52.532;6.426;2023-02-15T08:06:31;74.28;;;36.80;;
63005;SDS011;53704;52.532;6.426;2023-02-15T08:08:58;82.47;;;36.77;;
63005;SDS011;53704;52.532;6.426;2023-02-15T08:11:26;70.57;;;36.45;;
63005;SDS011;53704;52.532;6.426;2023-02-15T08:14:03;80.95;;;40.67;;
63005;SDS011;53704;52.532;6.426;2023-02-15T08:16:33;81.28;;;40.00;;
63005;SDS011;53704;52.532;6.426;2023-02-15T08:19:03;85.07;;;39.72;;
63005;SDS011;53704;52.532;6.426;2023-02-15T08:21:30;75.82;;;37.47;;
63005;SDS011;53704;52.532;6.426;2023-02-15T08:23:57;92.30;;;38.83;;
63005;SDS011;53704;52.532;6.426;2023-02-15T08:26:23;91.27;;;39.03;;
63005;SDS011;53704;52.532;6.426;2023-02-15T08:28:50;80.05;;;38.65;;
63005;SDS011;53704;52.532;6.426;2023-02-15T08:31:16;82.13;;;40.30;;
63005;SDS011;53704;52.532;6.426;2023-02-15T08:33:42;91.35;;;41.80;;
63005;SDS011;53704;52.532;6.426;2023-02-15T08:36:10;85.93;;;38.67;;
63005;SDS011;53704;52.532;6.426;2023-02-15T08:38:37;73.50;;;38.00;;
63005;SDS011;53704;52.532;6.426;2023-02-15T08:41:10;84.50;;;40.05;;
63005;SDS011;53704;52.532;6.426;2023-02-15T08:43:35;86.88;;;40.58;;
63005;SDS011;53704;52.532;6.426;2023-02-15T08:46:01;86.55;;;40.42;;
63005;SDS011;53704;52.532;6.426;2023-02-15T08:48:26;88.05;;;40.33;;
63005;SDS011;53704;52.532;6.426;2023-02-15T08:50:52;97.10;;;43.97;;
63005;SDS011;53704;52.532;6.426;2023-02-15T08:53:17;98.75;;;43.20;;
63005;SDS011;53704;52.532;6.426;2023-02-15T08:55:46;93.90;;;44.40;;
63005;SDS011;53704;52.532;6.426;2023-02-15T08:58:12;97.22;;;43.22;;
63005;SDS011;53704;52.532;6.426;2023-02-15T09:00:37;97.57;;;43.05;;
63005;SDS011;53704;52.532;6.426;2023-02-15T09:03:03;97.20;;;45.25;;
63005;SDS011;53704;52.532;6.426;2023-02-15T09:05:28;92.03;;;42.97;;
63005;SDS011;53704;52.532;6.426;2023-02-15T09:07:54;95.10;;;45.00;;
63005;SDS011;53704;52.532;6.426;2023-02-15T09:10:19;105.28;;;47.08;;
63005;SDS011;53704;52.532;6.426;2023-02-15T09:12:45;102.00;;;46.08;;
63005;SDS011;53704;52.532;6.426;2023-02-15T09:15:10;105.90;;;47.15;;
63005;SDS011;53704;52.532;6.426;2023-02-15T09:17:36;102.68;;;45.13;;
63005;SDS011;53704;52.532;6.426;2023-02-15T09:20:01;97.18;;;47.40;;
63005;SDS011;53704;52.532;6.426;2023-02-15T09:22:27;96.18;;;45.75;;
63005;SDS011;53704;52.532;6.426;2023-02-15T09:24:53;103.65;;;47.42;;
63005;SDS011;53704;52.532;6.426;2023-02-15T09:27:18;103.28;;;46.85;;
63005;SDS011;53704;52.532;6.426;2023-02-15T09:29:44;94.68;;;46.65;;
63005;SDS011;53704;52.532;6.426;2023-02-15T09:32:09;105.00;;;46.80;;
63005;SDS011;53704;52.532;6.426;2023-02-15T09:34:39;96.13;;;46.33;;
63005;SDS011;53704;52.532;6.426;2023-02-15T09:37:05;104.90;;;49.25;;
63005;SDS011;53704;52.532;6.426;2023-02-15T09:39:31;95.03;;;49.35;;
63005;SDS011;53704;52.532;6.426;2023-02-15T09:44:55;95.57;;;45.55;;
63005;SDS011;53704;52.532;6.426;2023-02-15T09:54:06;91.07;;;44.53;;
63005;SDS011;53704;52.532;6.426;2023-02-15T09:56:45;97.13;;;46.05;;
63005;SDS011;53704;52.532;6.426;2023-02-15T10:01:59;88.97;;;45.00;;
63005;SDS011;53704;52.532;6.426;2023-02-15T10:07:22;94.65;;;44.20;;
63005;SDS011;53704;52.532;6.426;2023-02-15T10:28:57;75.40;;;39.40;;
63005;SDS011;53704;52.532;6.426;2023-02-15T10:31:48;71.55;;;38.58;;
63005;SDS011;53704;52.532;6.426;2023-02-15T10:37:21;75.47;;;40.15;;
63005;SDS011;53704;52.532;6.426;2023-02-15T10:42:57;69.75;;;39.45;;
63005;SDS011;53704;52.532;6.426;2023-02-15T10:48:45;71.55;;;37.38;;
63005;SDS011;53704;52.532;6.426;2023-02-15T11:00:02;66.50;;;36.08;;
63005;SDS011;53704;52.532;6.426;2023-02-15T11:05:26;61.63;;;36.80;;
63005;SDS011;53704;52.532;6.426;2023-02-15T11:08:10;63.03;;;36.10;;
63005;SDS011;53704;52.532;6.426;2023-02-15T11:13:16;63.03;;;35.42;;
63005;SDS011;53704;52.532;6.426;2023-02-15T11:15:55;59.22;;;35.13;;
63005;SDS011;53704;52.532;6.426;2023-02-15T11:18:30;55.05;;;33.85;;
63005;SDS011;53704;52.532;6.426;2023-02-15T11:24:10;60.25;;;32.50;;
63005;SDS011;53704;52.532;6.426;2023-02-15T11:26:39;54.83;;;31.55;;
63005;SDS011;53704;52.532;6.426;2023-02-15T11:29:52;55.78;;;32.47;;
63005;SDS011;53704;52.532;6.426;2023-02-15T11:32:01;56.15;;;31.58;;
63005;SDS011;53704;52.532;6.426;2023-02-15T11:35:04;56.75;;;30.48;;
63005;SDS011;53704;52.532;6.426;2023-02-15T11:37:44;58.17;;;30.30;;
63005;SDS011;53704;52.532;6.426;2023-02-15T11:40:15;53.72;;;30.10;;
63005;SDS011;53704;52.532;6.426;2023-02-15T11:42:43;51.50;;;29.67;;
63005;SDS011;53704;52.532;6.426;2023-02-15T11:45:21;49.90;;;29.08;;
63005;SDS011;53704;52.532;6.426;2023-02-15T11:47:48;50.08;;;29.30;;
63005;SDS011;53704;52.532;6.426;2023-02-15T11:50:18;53.60;;;30.40;;
63005;SDS011;53704;52.532;6.426;2023-02-15T11:52:47;51.08;;;28.90;;
63005;SDS011;53704;52.532;6.426;2023-02-15T11:55:16;51.80;;;29.25;;
63005;SDS011;53704;52.532;6.426;2023-02-15T11:57:46;49.05;;;27.35;;
63005;SDS011;53704;52.532;6.426;2023-02-15T12:00:33;53.72;;;28.60;;
63005;SDS011;53704;52.532;6.426;2023-02-15T12:03:14;51.90;;;29.58;;
63005;SDS011;53704;52.532;6.426;2023-02-15T12:05:44;50.20;;;28.33;;
63005;SDS011;53704;52.532;6.426;2023-02-15T12:08:19;51.63;;;28.52;;
63005;SDS011;53704;52.532;6.426;2023-02-15T12:13:44;49.17;;;28.73;;
63005;SDS011;53704;52.532;6.426;2023-02-15T12:16:31;43.67;;;27.08;;
63005;SDS011;53704;52.532;6.426;2023-02-15T12:19:04;44.65;;;25.95;;
63005;SDS011;53704;52.532;6.426;2023-02-15T12:21:31;53.05;;;28.25;;
63005;SDS011;53704;52.532;6.426;2023-02-15T12:24:03;45.10;;;27.67;;
63005;SDS011;53704;52.532;6.426;2023-02-15T12:26:39;43.08;;;26.88;;
63005;SDS011;53704;52.532;6.426;2023-02-15T12:29:16;45.47;;;27.88;;
63005;SDS011;53704;52.532;6.426;2023-02-15T12:31:44;47.75;;;27.65;;
63005;SDS011;53704;52.532;6.426;2023-02-15T12:34:13;44.72;;;26.70;;
63005;SDS011;53704;52.532;6.426;2023-02-15T12:36:46;49.35;;;26.77;;
63005;SDS011;53704;52.532;6.426;2023-02-15T12:39:20;43.60;;;26.10;;
63005;SDS011;53704;52.532;6.426;2023-02-15T12:47:20;44.25;;;27.05;;
63005;SDS011;53704;52.532;6.426;2023-02-15T12:52:41;41.80;;;25.42;;
63005;SDS011;53704;52.532;6.426;2023-02-15T12:55:26;45.13;;;26.48;;
63005;SDS011;53704;52.532;6.426;2023-02-15T12:58:11;49.47;;;25.90;;
63005;SDS011;53704;52.532;6.426;2023-02-15T13:00:44;44.90;;;25.10;;
63005;SDS011;53704;52.532;6.426;2023-02-15T13:03:18;38.08;;;22.85;;
63005;SDS011;53704;52.532;6.426;2023-02-15T13:05:46;46.58;;;26.48;;
63005;SDS011;53704;52.532;6.426;2023-02-15T13:08:16;41.78;;;25.27;;
63005;SDS011;53704;52.532;6.426;2023-02-15T13:10:56;47.15;;;25.13;;
63005;SDS011;53704;52.532;6.426;2023-02-15T13:13:25;52.05;;;26.13;;
63005;SDS011;53704;52.532;6.426;2023-02-15T13:15:59;39.47;;;25.40;;
63005;SDS011;53704;52.532;6.426;2023-02-15T13:18:30;43.35;;;23.35;;
63005;SDS011;53704;52.532;6.426;2023-02-15T13:21:32;42.60;;;25.02;;
63005;SDS011;53704;52.532;6.426;2023-02-15T13:23:56;43.35;;;24.88;;
63005;SDS011;53704;52.532;6.426;2023-02-15T13:26:26;44.88;;;26.00;;
63005;SDS011;53704;52.532;6.426;2023-02-15T13:28:56;42.75;;;24.80;;
63005;SDS011;53704;52.532;6.426;2023-02-15T13:31:30;46.67;;;24.98;;
63005;SDS011;53704;52.532;6.426;2023-02-15T13:33:59;43.35;;;24.58;;
63005;SDS011;53704;52.532;6.426;2023-02-15T13:50:06;44.13;;;24.75;;
63005;SDS011;53704;52.532;6.426;2023-02-15T14:01:05;41.97;;;22.83;;
63005;SDS011;53704;52.532;6.426;2023-02-15T14:06:18;40.25;;;23.83;;
63005;SDS011;53704;52.532;6.426;2023-02-15T14:23:11;47.35;;;24.55;;
63005;SDS011;53704;52.532;6.426;2023-02-15T14:25:50;46.63;;;25.42;;
63005;SDS011;53704;52.532;6.426;2023-02-15T14:30:52;41.55;;;23.55;;
63005;SDS011;53704;52.532;6.426;2023-02-15T14:33:32;40.20;;;23.67;;
63005;SDS011;53704;52.532;6.426;2023-02-15T14:36:02;42.25;;;24.23;;
63005;SDS011;53704;52.532;6.426;2023-02-15T14:38:44;39.15;;;23.70;;
63005;SDS011;53704;52.532;6.426;2023-02-15T14:41:42;46.28;;;25.73;;
63005;SDS011;53704;52.532;6.426;2023-02-15T14:44:22;48.15;;;24.25;;
63005;SDS011;53704;52.532;6.426;2023-02-15T14:46:58;45.38;;;24.65;;
63005;SDS011;53704;52.532;6.426;2023-02-15T14:49:38;49.53;;;24.95;;
63005;SDS011;53704;52.532;6.426;2023-02-15T14:59:36;51.53;;;24.58;;
63005;SDS011;53704;52.532;6.426;2023-02-15T15:05:07;51.80;;;25.35;;
63005;SDS011;53704;52.532;6.426;2023-02-15T15:12:46;47.95;;;24.23;;
63005;SDS011;53704;52.532;6.426;2023-02-15T15:17:56;45.97;;;25.55;;
63005;SDS011;53704;52.532;6.426;2023-02-15T15:28:09;46.72;;;26.33;;
63005;SDS011;53704;52.532;6.426;2023-02-15T15:30:58;61.40;;;32.65;;
63005;SDS011;53704;52.532;6.426;2023-02-15T15:36:34;61.90;;;34.63;;
63005;SDS011;53704;52.532;6.426;2023-02-15T15:41:53;86.77;;;40.77;;
63005;SDS011;53704;52.532;6.426;2023-02-15T15:47:33;52.20;;;27.25;;
63005;SDS011;53704;52.532;6.426;2023-02-15T15:50:15;46.72;;;26.58;;
63005;SDS011;53704;52.532;6.426;2023-02-15T15:52:45;48.50;;;26.40;;
63005;SDS011;53704;52.532;6.426;2023-02-15T15:55:18;46.47;;;26.60;;
63005;SDS011;53704;52.532;6.426;2023-02-15T15:57:59;46.65;;;27.42;;
63005;SDS011;53704;52.532;6.426;2023-02-15T16:03:16;44.90;;;25.95;;
63005;SDS011;53704;52.532;6.426;2023-02-15T16:05:47;46.58;;;27.58;;
63005;SDS011;53704;52.532;6.426;2023-02-15T16:08:25;48.92;;;26.10;;
63005;SDS011;53704;52.532;6.426;2023-02-15T16:11:19;58.80;;;26.05;;
63005;SDS011;53704;52.532;6.426;2023-02-15T16:13:47;46.88;;;28.38;;
63005;SDS011;53704;52.532;6.426;2023-02-15T16:16:13;45.30;;;26.13;;
63005;SDS011;53704;52.532;6.426;2023-02-15T16:18:46;46.78;;;27.40;;
63005;SDS011;53704;52.532;6.426;2023-02-15T16:21:15;46.63;;;26.63;;
63005;SDS011;53704;52.532;6.426;2023-02-15T16:23:59;49.50;;;26.80;;
63005;SDS011;53704;52.532;6.426;2023-02-15T16:27:03;46.20;;;25.13;;
63005;SDS011;53704;52.532;6.426;2023-02-15T16:29:44;40.90;;;25.63;;
63005;SDS011;53704;52.532;6.426;2023-02-15T16:37:23;47.03;;;26.50;;
63005;SDS011;53704;52.532;6.426;2023-02-15T16:39:52;46.83;;;28.27;;
63005;SDS011;53704;52.532;6.426;2023-02-15T16:42:19;48.38;;;27.52;;
63005;SDS011;53704;52.532;6.426;2023-02-15T16:44:49;46.10;;;28.50;;
63005;SDS011;53704;52.532;6.426;2023-02-15T16:47:21;47.10;;;28.25;;
63005;SDS011;53704;52.532;6.426;2023-02-15T16:49:53;45.15;;;27.20;;
63005;SDS011;53704;52.532;6.426;2023-02-15T16:52:23;46.97;;;26.75;;
63005;SDS011;53704;52.532;6.426;2023-02-15T16:54:52;46.55;;;27.92;;
63005;SDS011;53704;52.532;6.426;2023-02-15T16:57:21;45.83;;;27.70;;
63005;SDS011;53704;52.532;6.426;2023-02-15T16:59:50;48.25;;;28.95;;
63005;SDS011;53704;52.532;6.426;2023-02-15T17:02:26;46.42;;;28.13;;
63005;SDS011;53704;52.532;6.426;2023-02-15T17:05:16;46.25;;;27.83;;
63005;SDS011;53704;52.532;6.426;2023-02-15T17:07:51;47.90;;;28.60;;
63005;SDS011;53704;52.532;6.426;2023-02-15T17:10:31;109.60;;;53.60;;
63005;SDS011;53704;52.532;6.426;2023-02-15T17:13:05;78.65;;;45.20;;
63005;SDS011;53704;52.532;6.426;2023-02-15T17:18:23;55.35;;;30.83;;
63005;SDS011;53704;52.532;6.426;2023-02-15T17:20:50;51.70;;;30.02;;
63005;SDS011;53704;52.532;6.426;2023-02-15T17:25:47;50.45;;;31.00;;
63005;SDS011;53704;52.532;6.426;2023-02-15T17:28:20;56.47;;;31.10;;
63005;SDS011;53704;52.532;6.426;2023-02-15T17:30:50;55.80;;;30.90;;
63005;SDS011;53704;52.532;6.426;2023-02-15T17:38:35;58.67;;;31.38;;
63005;SDS011;53704;52.532;6.426;2023-02-15T17:41:01;54.97;;;31.95;;
63005;SDS011;53704;52.532;6.426;2023-02-15T17:43:27;54.47;;;31.63;;
63005;SDS011;53704;52.532;6.426;2023-02-15T17:45:52;51.75;;;31.65;;
63005;SDS011;53704;52.532;6.426;2023-02-15T17:50:49;50.30;;;31.42;;
63005;SDS011;53704;52.532;6.426;2023-02-15T17:53:15;60.92;;;32.03;;
63005;SDS011;53704;52.532;6.426;2023-02-15T17:55:42;50.85;;;30.75;;
63005;SDS011;53704;52.532;6.426;2023-02-15T18:00:43;57.53;;;31.15;;
63005;SDS011;53704;52.532;6.426;2023-02-15T18:03:53;62.20;;;32.08;;
63005;SDS011;53704;52.532;6.426;2023-02-15T18:06:37;56.58;;;33.42;;
63005;SDS011;53704;52.532;6.426;2023-02-15T18:09:23;46.97;;;30.15;;
63005;SDS011;53704;52.532;6.426;2023-02-15T18:12:18;57.42;;;32.72;;
63005;SDS011;53704;52.532;6.426;2023-02-15T18:14:45;57.13;;;31.83;;
63005;SDS011;53704;52.532;6.426;2023-02-15T18:17:11;54.60;;;33.05;;
63005;SDS011;53704;52.532;6.426;2023-02-15T18:19:38;62.78;;;34.83;;